createdAt,value
2022-12-08T00:02:45.518Z,1.80
2022-12-08T00:05:51.003Z,1.77
2022-12-08T00:08:56.089Z,1.75
2022-12-08T00:11:43.880Z,1.69
2022-12-08T00:14:35.296Z,1.66
2022-12-08T00:17:23.457Z,1.63
2022-12-08T00:20:12.179Z,1.58
2022-12-08T00:23:00.034Z,1.53
2022-12-08T00:25:48.108Z,1.49
2022-12-08T00:28:36.887Z,1.46
2022-12-08T00:31:26.300Z,1.39
2022-12-08T00:34:14.701Z,1.37
2022-12-08T00:37:02.909Z,1.37
2022-12-08T00:39:50.689Z,1.34
2022-12-08T00:42:38.621Z,1.33
2022-12-08T00:45:26.642Z,1.29
2022-12-08T00:48:15.944Z,1.27
2022-12-08T00:51:04.412Z,1.25
2022-12-08T00:53:52.430Z,1.23
2022-12-08T00:56:40.707Z,1.20
2022-12-08T00:59:28.705Z,1.16
2022-12-08T01:02:16.872Z,1.14
2022-12-08T01:05:06.542Z,1.10
2022-12-08T01:07:54.497Z,1.06
2022-12-08T01:10:42.248Z,1.02
2022-12-08T01:13:30.332Z,1.00
2022-12-08T01:16:22.057Z,0.96
2022-12-08T01:19:10.947Z,0.93
2022-12-08T01:22:00.261Z,0.90
2022-12-08T01:24:48.185Z,0.87
2022-12-08T01:27:36.081Z,0.83
2022-12-08T01:30:24.412Z,0.80
2022-12-08T01:33:12.624Z,0.73
2022-12-08T01:36:05.458Z,0.72
2022-12-08T01:38:56.088Z,0.69
2022-12-08T01:41:44.988Z,0.66
2022-12-08T01:44:54.665Z,0.64
2022-12-08T01:47:47.084Z,0.61
2022-12-08T01:50:36.562Z,0.58
2022-12-08T01:53:28.345Z,0.54
2022-12-08T01:56:25.054Z,0.50
2022-12-08T01:59:13.877Z,0.46
2022-12-08T02:02:03.194Z,0.43
2022-12-08T02:04:51.417Z,0.41
2022-12-08T02:07:39.952Z,0.39
2022-12-08T02:10:31.236Z,0.33
2022-12-08T02:13:22.502Z,0.30
2022-12-08T02:16:19.137Z,0.27
2022-12-08T02:19:32.766Z,0.23
2022-12-08T02:25:41.454Z,0.13
2022-12-08T02:29:03.367Z,0.11
2022-12-08T02:32:04.541Z,0.08
2022-12-08T02:34:59.658Z,0.03
2022-12-08T02:37:56.103Z,0.00
2022-12-08T02:40:51.515Z,-0.04
2022-12-08T02:43:44.206Z,-0.07
2022-12-08T02:46:39.261Z,-0.10
2022-12-08T02:49:30.425Z,-0.14
2022-12-08T02:52:42.239Z,-0.19
2022-12-08T02:55:37.408Z,-0.21
2022-12-08T02:59:05.371Z,-0.24
2022-12-08T03:02:11.147Z,-0.21
2022-12-08T03:05:06.536Z,-0.22
2022-12-08T03:08:03.978Z,-0.25
2022-12-08T03:10:58.945Z,-0.28
2022-12-08T03:13:50.197Z,-0.28
2022-12-08T03:16:42.402Z,-0.29
2022-12-08T03:19:35.779Z,-0.29
2022-12-08T03:22:25.762Z,-0.30
2022-12-08T03:25:18.216Z,-0.28
2022-12-08T03:28:07.205Z,-0.31
2022-12-08T03:31:00.239Z,-0.31
2022-12-08T03:33:53.612Z,-0.32
2022-12-08T03:36:41.684Z,-0.30
2022-12-08T03:39:30.369Z,-0.30
2022-12-08T03:42:19.540Z,-0.28
2022-12-08T03:45:07.995Z,-0.27
2022-12-08T03:47:55.921Z,-0.25
2022-12-08T03:50:44.026Z,-0.24
2022-12-08T03:53:31.700Z,-0.24
2022-12-08T03:56:25.236Z,-0.23
2022-12-08T03:59:14.510Z,-0.22
2022-12-08T04:02:02.829Z,-0.21
2022-12-08T04:04:50.681Z,-0.21
2022-12-08T04:07:38.767Z,-0.18
2022-12-08T04:10:26.600Z,-0.18
2022-12-08T04:13:14.373Z,-0.17
2022-12-08T04:16:05.078Z,-0.14
2022-12-08T04:18:53.360Z,-0.13
2022-12-08T04:21:41.143Z,-0.12
2022-12-08T04:24:29.351Z,-0.11
2022-12-08T04:27:19.930Z,-0.11
2022-12-08T04:30:09.503Z,-0.10
2022-12-08T04:32:58.690Z,-0.07
2022-12-08T04:35:46.697Z,-0.03
2022-12-08T04:38:35.029Z,-0.03
2022-12-08T04:41:22.911Z,0.00
2022-12-08T04:44:10.896Z,0.00
2022-12-08T04:46:59.094Z,0.02
2022-12-08T04:49:48.345Z,0.01
2022-12-08T04:52:53.203Z,0.03
2022-12-08T04:55:42.012Z,0.05
2022-12-08T04:58:29.690Z,0.09
2022-12-08T05:01:17.585Z,0.20
2022-12-08T05:04:05.630Z,0.18
2022-12-08T05:06:56.347Z,0.16
2022-12-08T05:09:44.905Z,0.19
2022-12-08T05:12:32.615Z,0.20
2022-12-08T05:15:20.826Z,0.21
2022-12-08T05:18:08.961Z,0.21
2022-12-08T05:20:56.668Z,0.18
2022-12-08T05:23:45.979Z,0.18
2022-12-08T05:26:34.076Z,0.20
2022-12-08T05:29:21.900Z,0.21
2022-12-08T05:32:11.937Z,0.22
2022-12-08T05:34:59.692Z,0.22
2022-12-08T05:37:47.720Z,0.23
2022-12-08T05:40:38.322Z,0.24
2022-12-08T05:43:26.568Z,0.25
2022-12-08T05:46:15.165Z,0.27
2022-12-08T05:49:03.515Z,0.28
2022-12-08T05:51:51.671Z,0.30
2022-12-08T05:54:39.849Z,0.31
2022-12-08T05:57:29.172Z,0.32
2022-12-08T06:00:18.136Z,0.30
2022-12-08T06:03:06.044Z,0.32
2022-12-08T06:05:54.044Z,0.32
2022-12-08T06:08:42.281Z,0.35
2022-12-08T06:11:32.074Z,0.36
2022-12-08T06:14:24.449Z,0.37
2022-12-08T06:17:12.558Z,0.40
2022-12-08T06:20:00.306Z,0.41
2022-12-08T06:22:51.574Z,0.39
2022-12-08T06:25:39.443Z,0.41
2022-12-08T06:28:29.789Z,0.45
2022-12-08T06:31:21.459Z,0.43
2022-12-08T06:34:09.670Z,0.45
2022-12-08T06:36:57.666Z,0.49
2022-12-08T06:39:45.732Z,0.48
2022-12-08T06:42:46.503Z,0.49
2022-12-08T06:45:34.378Z,0.48
2022-12-08T06:48:23.856Z,0.48
2022-12-08T06:51:13.254Z,0.46
2022-12-08T06:54:02.590Z,0.46
2022-12-08T06:56:50.482Z,0.47
2022-12-08T06:59:39.708Z,0.48
2022-12-08T07:02:27.371Z,0.49
2022-12-08T07:05:16.945Z,0.48
2022-12-08T07:08:06.947Z,0.50
2022-12-08T07:10:55.120Z,0.50
2022-12-08T07:13:49.321Z,0.53
2022-12-08T07:16:37.575Z,0.54
2022-12-08T07:19:25.796Z,0.54
2022-12-08T07:22:15.103Z,0.54
2022-12-08T07:25:03.123Z,0.58
2022-12-08T07:27:52.648Z,0.61
2022-12-08T07:30:40.873Z,0.62
2022-12-08T07:33:29.255Z,0.61
2022-12-08T07:36:17.892Z,0.64
2022-12-08T07:39:07.395Z,0.65
2022-12-08T07:41:55.365Z,0.69
2022-12-08T07:44:43.396Z,0.71
2022-12-08T07:47:31.346Z,0.75
2022-12-08T07:50:19.388Z,0.78
2022-12-08T07:53:07.871Z,0.80
2022-12-08T07:55:57.429Z,0.83
2022-12-08T07:58:46.849Z,0.84
2022-12-08T08:01:36.175Z,0.88
2022-12-08T08:04:26.349Z,0.93
2022-12-08T08:07:14.345Z,0.97
2022-12-08T08:10:03.181Z,1.00
2022-12-08T08:12:52.466Z,1.05
2022-12-08T08:15:40.362Z,1.08
2022-12-08T08:18:28.103Z,1.13
2022-12-08T08:21:43.976Z,1.19
2022-12-08T08:24:24.403Z,1.24
2022-12-08T08:27:12.346Z,1.29
2022-12-08T08:30:02.738Z,1.34
2022-12-08T08:32:52.398Z,1.41
2022-12-08T08:35:40.849Z,1.48
2022-12-08T08:38:29.278Z,1.53
2022-12-08T08:41:17.200Z,1.62
2022-12-08T08:44:05.737Z,1.67
2022-12-08T08:46:54.908Z,1.76
2022-12-08T08:49:43.378Z,1.84
2022-12-08T08:52:31.866Z,1.80
2022-12-08T08:55:20.197Z,1.88
2022-12-08T08:58:08.182Z,1.96
2022-12-08T09:00:56.440Z,2.00
2022-12-08T09:03:46.095Z,2.02
2022-12-08T09:06:34.356Z,2.12
2022-12-08T09:09:22.413Z,2.14
2022-12-08T09:12:11.323Z,2.21
2022-12-08T09:14:59.541Z,2.28
2022-12-08T09:17:47.851Z,2.32
2022-12-08T09:20:40.039Z,2.35
2022-12-08T09:23:32.174Z,2.42
2022-12-08T09:26:24.195Z,2.43
2022-12-08T09:29:13.729Z,2.45
2022-12-08T09:32:01.821Z,2.42
2022-12-08T09:34:52.212Z,2.40
2022-12-08T09:37:41.830Z,2.45
2022-12-08T09:40:33.840Z,2.54
2022-12-08T09:43:43.480Z,2.48
2022-12-08T09:46:35.318Z,2.63
2022-12-08T09:49:29.611Z,2.59
2022-12-08T09:52:22.444Z,2.63
2022-12-08T09:55:18.647Z,2.63
2022-12-08T09:58:12.385Z,2.68
2022-12-08T10:01:00.915Z,2.76
2022-12-08T10:03:49.495Z,2.81
2022-12-08T10:06:42.675Z,2.79
2022-12-08T10:09:40.823Z,2.80
2022-12-08T10:12:38.515Z,2.84
2022-12-08T10:15:42.802Z,2.88
2022-12-08T10:18:33.538Z,2.83
2022-12-08T10:21:26.062Z,2.86
2022-12-08T10:24:19.925Z,2.90
2022-12-08T10:27:12.510Z,3.01
2022-12-08T10:30:02.108Z,3.06
2022-12-08T10:32:52.783Z,3.04
2022-12-08T10:35:49.514Z,3.02
2022-12-08T10:38:39.414Z,3.07
2022-12-08T10:41:27.345Z,3.12
2022-12-08T10:44:20.267Z,3.23
2022-12-08T10:47:15.590Z,3.16
2022-12-08T10:50:19.631Z,3.33
2022-12-08T10:53:15.287Z,3.34
2022-12-08T10:56:17.659Z,3.40
2022-12-08T10:59:17.800Z,3.38
2022-12-08T11:02:17.385Z,3.31
2022-12-08T11:05:07.724Z,3.34
2022-12-08T11:07:57.337Z,3.34
2022-12-08T11:10:46.626Z,3.40
2022-12-08T11:13:43.211Z,3.57
2022-12-08T11:16:33.201Z,3.59
2022-12-08T11:19:22.640Z,3.40
2022-12-08T11:22:26.299Z,3.44
2022-12-08T11:25:21.919Z,3.45
2022-12-08T11:28:12.578Z,3.65
2022-12-08T11:31:06.171Z,3.67
2022-12-08T11:33:54.850Z,3.68
2022-12-08T11:36:43.349Z,3.69
2022-12-08T11:39:36.304Z,3.60
2022-12-08T11:42:26.153Z,3.65
2022-12-08T11:45:18.459Z,3.69
2022-12-08T11:48:14.611Z,3.78
2022-12-08T11:51:10.381Z,3.73
2022-12-08T11:54:15.366Z,3.79
2022-12-08T11:57:09.972Z,3.68
2022-12-08T11:59:59.836Z,3.59
2022-12-08T12:02:55.793Z,3.60
2022-12-08T12:09:12.864Z,3.84
2022-12-08T12:12:19.825Z,3.88
2022-12-08T12:15:26.995Z,3.85
2022-12-08T12:18:25.638Z,3.97
2022-12-08T12:21:19.362Z,3.93
2022-12-08T12:24:10.464Z,3.79
2022-12-08T12:27:02.854Z,4.01
2022-12-08T12:29:56.476Z,3.96
2022-12-08T12:32:48.323Z,4.13
2022-12-08T12:35:42.183Z,4.15
2022-12-08T12:38:53.385Z,4.23
2022-12-08T12:41:47.591Z,4.22
2022-12-08T12:44:44.398Z,4.21
2022-12-08T12:47:55.627Z,4.25
2022-12-08T12:50:46.846Z,4.33
2022-12-08T12:53:51.951Z,4.37
2022-12-08T12:57:15.855Z,4.36
2022-12-08T13:00:19.727Z,4.37
2022-12-08T13:03:15.251Z,4.42
2022-12-08T13:06:03.909Z,4.42
2022-12-08T13:08:56.564Z,4.47
2022-12-08T13:11:51.751Z,4.48
2022-12-08T13:14:48.078Z,4.38
2022-12-08T13:17:38.387Z,4.45
2022-12-08T13:20:28.150Z,4.44
2022-12-08T13:23:43.748Z,4.44
2022-12-08T13:26:31.789Z,4.20
2022-12-08T13:29:23.297Z,4.34
2022-12-08T13:33:17.307Z,4.13
2022-12-08T13:36:22.446Z,3.99
2022-12-08T13:39:27.730Z,3.98
2022-12-08T13:42:22.885Z,4.03
2022-12-08T13:45:39.732Z,3.93
2022-12-08T13:49:41.899Z,4.11
2022-12-08T13:56:05.442Z,4.13
2022-12-08T14:01:01.709Z,3.83
2022-12-08T14:04:28.541Z,3.84
2022-12-08T14:07:04.258Z,3.98
2022-12-08T14:10:05.922Z,3.92
2022-12-08T14:13:03.709Z,3.85
2022-12-08T14:15:51.642Z,3.76
2022-12-08T14:18:39.708Z,3.80
2022-12-08T14:21:35.787Z,3.92
2022-12-08T14:24:26.541Z,3.92
2022-12-08T14:27:18.411Z,3.86
2022-12-08T14:30:09.374Z,3.96
2022-12-08T14:32:59.441Z,3.88
2022-12-08T14:35:53.513Z,3.83
2022-12-08T14:38:41.345Z,3.89
2022-12-08T14:41:34.574Z,3.84
2022-12-08T14:44:25.185Z,3.78
2022-12-08T14:47:21.010Z,3.70
2022-12-08T14:50:40.246Z,3.55
2022-12-08T14:53:31.420Z,3.67
2022-12-08T14:56:23.843Z,3.71
2022-12-08T14:59:16.551Z,3.59
2022-12-08T15:02:26.400Z,3.65
2022-12-08T15:05:17.152Z,3.63
2022-12-08T15:08:11.901Z,3.59
2022-12-08T15:11:25.914Z,3.57
2022-12-08T15:14:33.633Z,3.49
2022-12-08T15:17:35.245Z,3.44
2022-12-08T15:20:35.586Z,3.52
2022-12-08T15:23:32.570Z,3.37
2022-12-08T15:26:23.201Z,3.50
2022-12-08T15:29:20.663Z,3.51
2022-12-08T15:32:13.716Z,3.41
2022-12-08T15:35:01.614Z,3.46
2022-12-08T15:37:50.485Z,3.44
2022-12-08T15:40:38.256Z,3.42
2022-12-08T15:43:26.778Z,3.40
2022-12-08T15:46:14.899Z,3.29
2022-12-08T15:49:04.323Z,3.33
2022-12-08T15:51:58.334Z,3.20
2022-12-08T15:54:53.049Z,3.34
2022-12-08T15:58:31.250Z,3.29
2022-12-08T16:00:53.157Z,3.24
2022-12-08T16:04:27.567Z,3.11
2022-12-08T16:10:01.329Z,3.08
2022-12-08T16:13:55.391Z,3.11
2022-12-08T16:16:20.796Z,3.13
2022-12-08T16:19:09.043Z,3.07
2022-12-08T16:22:51.314Z,3.09
2022-12-08T16:25:22.583Z,3.04
2022-12-08T16:28:45.327Z,3.03
2022-12-08T16:31:23.007Z,2.97
2022-12-08T16:34:11.248Z,2.94
2022-12-08T16:37:00.645Z,2.80
2022-12-08T16:39:50.170Z,2.81
2022-12-08T16:42:48.537Z,2.83
2022-12-08T16:45:41.525Z,2.77
2022-12-08T16:48:32.549Z,2.81
2022-12-08T16:51:26.660Z,2.81
2022-12-08T16:54:16.238Z,2.77
2022-12-08T16:57:04.238Z,2.77
2022-12-08T16:59:52.236Z,2.79
2022-12-08T17:02:40.506Z,2.81
2022-12-08T17:05:28.517Z,2.79
2022-12-08T17:08:16.587Z,2.81
2022-12-08T17:11:08.978Z,2.79
2022-12-08T17:13:56.915Z,2.77
2022-12-08T17:16:46.061Z,2.77
2022-12-08T17:19:34.934Z,2.77
2022-12-08T17:22:22.756Z,2.77
2022-12-08T17:25:11.213Z,2.69
2022-12-08T17:28:00.634Z,2.75
2022-12-08T17:30:48.542Z,2.75
2022-12-08T17:33:36.912Z,2.75
2022-12-08T17:36:24.655Z,2.74
2022-12-08T17:39:18.363Z,2.78
2022-12-08T17:42:08.002Z,2.77
2022-12-08T17:45:14.724Z,2.77
2022-12-08T17:48:02.453Z,2.77
2022-12-08T17:50:53.113Z,2.76
2022-12-08T17:53:41.807Z,2.75
2022-12-08T17:56:33.894Z,2.69
2022-12-08T17:59:24.544Z,2.72
2022-12-08T18:02:16.637Z,2.72
2022-12-08T18:05:07.943Z,2.71
2022-12-08T18:08:01.307Z,2.71
2022-12-08T18:10:50.555Z,2.69
2022-12-08T18:13:41.922Z,2.68
2022-12-08T18:16:32.868Z,2.63
2022-12-08T18:19:24.638Z,2.58
2022-12-08T18:22:16.168Z,2.59
2022-12-08T18:25:06.928Z,2.57
2022-12-08T18:27:59.170Z,2.53
2022-12-08T18:30:49.334Z,2.47
2022-12-08T18:33:38.347Z,2.49
2022-12-08T18:36:28.593Z,2.44
2022-12-08T18:39:24.170Z,2.42
2022-12-08T18:42:23.788Z,2.42
2022-12-08T18:45:12.329Z,2.41
2022-12-08T18:48:00.149Z,2.42
2022-12-08T18:50:48.829Z,2.39
2022-12-08T18:53:38.073Z,2.38
2022-12-08T18:56:27.796Z,2.37
2022-12-08T18:59:15.553Z,2.31
2022-12-08T19:02:03.592Z,2.28
2022-12-08T19:04:51.203Z,2.27
2022-12-08T19:07:39.463Z,2.23
2022-12-08T19:10:29.349Z,2.17
2022-12-08T19:13:17.604Z,2.13
2022-12-08T19:16:05.893Z,2.09
2022-12-08T19:18:53.745Z,2.07
2022-12-08T19:21:46.258Z,2.05
2022-12-08T19:24:36.615Z,2.02
2022-12-08T19:27:25.882Z,1.99
2022-12-08T19:30:14.914Z,1.97
2022-12-08T19:33:02.784Z,1.93
2022-12-08T19:35:52.735Z,1.95
2022-12-08T19:38:55.183Z,1.98
2022-12-08T19:42:05.693Z,1.92
2022-12-08T19:44:54.703Z,1.85
2022-12-08T19:47:43.290Z,1.82
2022-12-08T19:50:40.492Z,1.84
2022-12-08T19:53:28.949Z,1.84
2022-12-08T19:56:16.809Z,1.86
2022-12-08T19:59:05.362Z,1.85
2022-12-08T20:01:55.831Z,1.81
2022-12-08T20:04:44.362Z,1.81
2022-12-08T20:07:32.600Z,1.69
2022-12-08T20:10:28.148Z,1.72
2022-12-08T20:13:33.930Z,1.67
2022-12-08T20:16:24.074Z,1.62
2022-12-08T20:19:13.595Z,1.59
2022-12-08T20:22:01.865Z,1.59
2022-12-08T20:24:57.265Z,1.61
2022-12-08T20:27:47.426Z,1.59
2022-12-08T20:30:35.850Z,1.65
2022-12-08T20:33:23.854Z,1.65
2022-12-08T20:36:18.100Z,1.66
2022-12-08T20:39:05.870Z,1.68
2022-12-08T20:41:54.717Z,1.66
2022-12-08T20:44:44.447Z,1.62
2022-12-08T20:47:32.801Z,1.60
2022-12-08T20:50:20.508Z,1.59
2022-12-08T20:53:10.484Z,1.56
2022-12-08T20:55:58.629Z,1.53
2022-12-08T20:58:47.656Z,1.48
2022-12-08T21:01:35.934Z,1.45
2022-12-08T21:04:25.229Z,1.41
2022-12-08T21:07:13.864Z,1.37
2022-12-08T21:10:03.988Z,1.33
2022-12-08T21:12:52.278Z,1.29
2022-12-08T21:15:40.568Z,1.25
2022-12-08T21:18:30.398Z,1.23
2022-12-08T21:21:20.026Z,1.19
2022-12-08T21:24:10.634Z,1.18
2022-12-08T21:26:59.947Z,1.14
2022-12-08T21:29:48.020Z,1.13
2022-12-08T21:32:36.235Z,1.09
2022-12-08T21:35:24.007Z,1.07
2022-12-08T21:38:12.479Z,1.05
2022-12-08T21:41:04.752Z,1.02
2022-12-08T21:43:53.876Z,0.98
2022-12-08T21:46:42.747Z,0.94
2022-12-08T21:49:30.872Z,0.90
2022-12-08T21:52:19.277Z,0.88
2022-12-08T21:55:11.042Z,0.83
2022-12-08T21:58:00.990Z,0.81
2022-12-08T22:00:50.572Z,0.76
2022-12-08T22:03:39.888Z,0.70
2022-12-08T22:06:27.918Z,0.63
2022-12-08T22:09:15.986Z,0.58
2022-12-08T22:12:04.031Z,0.55
2022-12-08T22:14:52.082Z,0.49
2022-12-08T22:17:43.043Z,0.42
2022-12-08T22:20:31.544Z,0.36
2022-12-08T22:23:19.886Z,0.30
2022-12-08T22:26:09.862Z,0.25
2022-12-08T22:29:00.903Z,0.19
2022-12-08T22:31:48.923Z,0.13
2022-12-08T22:34:38.719Z,0.08
2022-12-08T22:37:26.680Z,0.00
2022-12-08T22:40:14.657Z,-0.06
2022-12-08T22:43:02.967Z,-0.12
2022-12-08T22:45:51.348Z,-0.18
2022-12-08T22:48:41.615Z,-0.24
2022-12-08T22:51:33.703Z,-0.29
2022-12-08T22:54:21.678Z,-0.36
2022-12-08T22:57:10.227Z,-0.43
2022-12-08T22:59:58.205Z,-0.48
2022-12-08T23:02:46.605Z,-0.53
2022-12-08T23:05:35.831Z,-0.59
2022-12-08T23:08:25.667Z,-0.65
2022-12-08T23:11:14.021Z,-0.72
2022-12-08T23:14:02.300Z,-0.77
2022-12-08T23:16:50.448Z,-0.81
2022-12-08T23:19:39.431Z,-0.87
2022-12-08T23:22:27.267Z,-0.91
2022-12-08T23:25:18.550Z,-0.97
2022-12-08T23:28:06.715Z,-1.01
2022-12-08T23:30:54.659Z,-1.07
2022-12-08T23:33:42.773Z,-1.12
2022-12-08T23:36:31.620Z,-1.16
2022-12-08T23:39:19.759Z,-1.21
2022-12-08T23:42:09.241Z,-1.26
2022-12-08T23:44:58.436Z,-1.31
2022-12-08T23:47:46.337Z,-1.35
2022-12-08T23:50:34.515Z,-1.39
2022-12-08T23:53:22.521Z,-1.44
2022-12-08T23:56:13.290Z,-1.48
2022-12-08T23:59:03.814Z,-1.51
